createdAt,value
2022-09-11T00:07:21.895Z,254
2022-09-11T00:27:21.949Z,254
2022-09-11T00:47:21.976Z,247
2022-09-11T01:07:21.948Z,248
2022-09-11T01:27:21.978Z,248
2022-09-11T01:47:22.036Z,247
2022-09-11T02:07:22.017Z,246
2022-09-11T02:27:22.030Z,241
2022-09-11T02:47:22.088Z,242
2022-09-11T03:07:22.067Z,238
2022-09-11T03:27:22.122Z,232
2022-09-11T03:47:21.919Z,235
2022-09-11T04:07:22.138Z,233
2022-09-11T04:27:22.344Z,226
2022-09-11T04:47:22.167Z,228
2022-09-11T05:07:22.186Z,230
2022-09-11T05:27:22.213Z,228
2022-09-11T05:47:22.231Z,225
2022-09-11T06:07:22.246Z,219
2022-09-11T06:27:22.274Z,220
2022-09-11T06:47:22.295Z,215
2022-09-11T07:07:22.317Z,216
2022-09-11T07:27:22.330Z,211
2022-09-11T07:47:22.348Z,212
2022-09-11T08:07:22.374Z,213
2022-09-11T08:27:22.405Z,212
2022-09-11T08:47:22.422Z,208
2022-09-11T09:07:22.444Z,207
2022-09-11T09:27:22.256Z,211
2022-09-11T09:47:22.468Z,210
2022-09-11T10:07:22.498Z,208
2022-09-11T10:27:23.650Z,210
2022-09-11T10:47:22.548Z,211
2022-09-11T11:07:22.458Z,204
2022-09-11T11:27:22.485Z,205
2022-09-11T11:47:22.494Z,209
2022-09-11T12:07:22.509Z,205
2022-09-11T12:27:22.526Z,205
2022-09-11T12:47:22.536Z,202
2022-09-11T13:47:22.594Z,206
2022-09-11T14:07:22.610Z,206
2022-09-11T14:27:22.618Z,199
2022-09-11T15:07:22.678Z,206
2022-09-11T15:27:22.685Z,204
2022-09-11T15:47:22.699Z,201
2022-09-11T16:07:29.843Z,202
2022-09-11T16:27:22.718Z,199
2022-09-11T16:47:22.745Z,196
2022-09-11T17:07:22.760Z,194
2022-09-11T17:27:22.781Z,192
2022-09-11T17:47:22.801Z,189
2022-09-11T18:07:22.924Z,188
2022-09-11T18:47:22.966Z,184
2022-09-11T19:27:23.026Z,179
2022-09-11T20:27:23.057Z,179
2022-09-11T20:47:23.098Z,182
2022-09-11T21:07:23.115Z,181
2022-09-11T21:27:23.136Z,181
2022-09-11T21:47:23.150Z,182
2022-09-11T22:07:23.178Z,177
2022-09-11T22:27:23.201Z,175
2022-09-11T23:07:23.242Z,178
2022-09-11T23:27:23.279Z,178
2022-09-11T23:47:23.297Z,175
